PWSweather.com
Personal Weather Stations
Station Observations
EA5BZ
Nuevo Altabix, ElcheES

Nuevo AltabixElcheES

Lat: 38.276, Lon: -0.671

Elevation: 0

Station Type: Davis Vantage Pro 2

http://meteoelche.es

High Low Average
Temperature 64.0°F17.8°C 49.8°F9.9°C 55.9°F13.3°C
Dew Point 48.6°F9.2°C 41.1°F5.1°C 43.8°F6.6°C
Winds 14.1 mph 22.7 kmh 3.1 mph 5.0 kmh 9.0 mph WSW14.5 kmh WSW
Wind Gusts 32.0 mph51.5 kmh 5.1 mph8.2 kmh 14.0 mph22.5 kmh
Humidity 74% 48% 64%
Pressure 30.50 in1032.8 mb 30.40 in1029.5 mb -
Precipitation 0.00 in0.0 mm - -
Hour Temp Dew Point Humidity Winds Wind Gusts Pressure Precip Precip Rate Daily Precip Total
12:00 AM 52.9°F11.6°C 41.9°F5.5°C 66% 8.5 mph WSW13.7 kmh WSW 13.0 mph20.9 kmh 30.41 in1029.8 mb 0.00 in0.0 mm 0.00 in0.0 mm 0.00 in0.0 mm
12:05 AM 52.9°F11.6°C 41.8°F5.4°C 66% 8.7 mph WSW14.0 kmh WSW 14.5 mph23.3 kmh 30.41 in1029.8 mb 0.00 in0.0 mm 0.00 in0.0 mm 0.00 in0.0 mm
12:10 AM 52.7°F11.5°C 41.7°F5.4°C 66% 9.2 mph WSW14.8 kmh WSW 12.3 mph19.8 kmh 30.41 in1029.8 mb 0.00 in0.0 mm 0.00 in0.0 mm 0.00 in0.0 mm
12:15 AM 52.5°F11.4°C 41.9°F5.5°C 67% 8.7 mph WSW14.0 kmh WSW 15.9 mph25.6 kmh 30.41 in1029.8 mb 0.00 in0.0 mm 0.00 in0.0 mm 0.00 in0.0 mm
12:20 AM 52.6°F11.4°C 42.0°F5.6°C 67% 7.4 mph W11.9 kmh W 12.5 mph20.1 kmh 30.41 in1029.8 mb 0.00 in0.0 mm 0.00 in0.0 mm 0.00 in0.0 mm
12:25 AM 52.7°F11.5°C 42.1°F5.6°C 67% 7.3 mph W11.7 kmh W 13.0 mph20.9 kmh 30.41 in1029.8 mb 0.00 in0.0 mm 0.00 in0.0 mm 0.00 in0.0 mm
12:30 AM 52.9°F11.6°C 42.1°F5.6°C 67% 6.9 mph WNW11.1 kmh WNW 14.1 mph22.7 kmh 30.41 in1029.8 mb 0.00 in0.0 mm 0.00 in0.0 mm 0.00 in0.0 mm
12:35 AM 52.9°F11.6°C 41.9°F5.5°C 66% 7.0 mph W11.3 kmh W 13.6 mph21.9 kmh 30.41 in1029.8 mb 0.00 in0.0 mm 0.00 in0.0 mm 0.00 in0.0 mm
12:40 AM 53.1°F11.7°C 42.0°F5.6°C 66% 7.4 mph W11.9 kmh W 12.3 mph19.8 kmh 30.41 in1029.8 mb 0.00 in0.0 mm 0.00 in0.0 mm 0.00 in0.0 mm
12:45 AM 53.1°F11.7°C 42.0°F5.6°C 66% 7.6 mph W12.2 kmh W 16.8 mph27.0 kmh 30.41 in1029.8 mb 0.00 in0.0 mm 0.00 in0.0 mm 0.00 in0.0 mm
12:50 AM 53.1°F11.7°C 42.1°F5.6°C 66% 8.1 mph W13.0 kmh W 15.9 mph25.6 kmh 30.41 in1029.8 mb 0.00 in0.0 mm 0.00 in0.0 mm 0.00 in0.0 mm
12:55 AM 53.3°F11.8°C 41.9°F5.5°C 65% 8.5 mph W13.7 kmh W 17.0 mph27.4 kmh 30.41 in1029.8 mb 0.00 in0.0 mm 0.00 in0.0 mm 0.00 in0.0 mm
01:00 AM 53.4°F11.9°C 42.0°F5.6°C 65% 9.6 mph W15.4 kmh W 17.0 mph27.4 kmh 30.41 in1029.8 mb 0.00 in0.0 mm 0.00 in0.0 mm 0.00 in0.0 mm
01:05 AM 53.5°F11.9°C 42.0°F5.6°C 65% 9.9 mph W15.9 kmh W 14.8 mph23.8 kmh 30.41 in1029.8 mb 0.00 in0.0 mm 0.00 in0.0 mm 0.00 in0.0 mm
01:10 AM 53.6°F12.0°C 42.0°F5.6°C 65% 10.7 mph W17.2 kmh W 15.7 mph25.3 kmh 30.41 in1029.8 mb 0.00 in0.0 mm 0.00 in0.0 mm 0.00 in0.0 mm
01:15 AM 53.6°F12.0°C 41.7°F5.4°C 64% 10.6 mph W17.1 kmh W 15.9 mph25.6 kmh 30.41 in1029.8 mb 0.00 in0.0 mm 0.00 in0.0 mm 0.00 in0.0 mm
01:20 AM 53.4°F11.9°C 41.7°F5.4°C 64% 10.1 mph WSW16.3 kmh WSW 11.9 mph19.2 kmh 30.41 in1029.8 mb 0.00 in0.0 mm 0.00 in0.0 mm 0.00 in0.0 mm
01:25 AM 53.3°F11.8°C 41.9°F5.5°C 65% 9.7 mph WSW15.6 kmh WSW 18.6 mph29.9 kmh 30.41 in1029.8 mb 0.00 in0.0 mm 0.00 in0.0 mm 0.00 in0.0 mm
01:30 AM 53.2°F11.8°C 41.7°F5.4°C 65% 8.7 mph WSW14.0 kmh WSW 17.9 mph28.8 kmh 30.41 in1029.8 mb 0.00 in0.0 mm 0.00 in0.0 mm 0.00 in0.0 mm
01:35 AM 53.1°F11.7°C 41.6°F5.3°C 65% 9.2 mph WSW14.8 kmh WSW 16.8 mph27.0 kmh 30.41 in1029.8 mb 0.00 in0.0 mm 0.00 in0.0 mm 0.00 in0.0 mm
01:40 AM 53.1°F11.7°C 41.7°F5.4°C 65% 10.7 mph WSW17.2 kmh WSW 17.4 mph28.0 kmh 30.41 in1029.8 mb 0.00 in0.0 mm 0.00 in0.0 mm 0.00 in0.0 mm
01:45 AM 53.1°F11.7°C 41.6°F5.3°C 65% 10.6 mph WSW17.1 kmh WSW 15.9 mph25.6 kmh 30.41 in1029.8 mb 0.00 in0.0 mm 0.00 in0.0 mm 0.00 in0.0 mm
01:50 AM 53.2°F11.8°C 41.7°F5.4°C 65% 10.1 mph WSW16.3 kmh WSW 16.3 mph26.2 kmh 30.41 in1029.8 mb 0.00 in0.0 mm 0.00 in0.0 mm 0.00 in0.0 mm
01:55 AM 53.2°F11.8°C 41.7°F5.4°C 65% 10.1 mph WSW16.3 kmh WSW 17.0 mph27.4 kmh 30.40 in1029.5 mb 0.00 in0.0 mm 0.00 in0.0 mm 0.00 in0.0 mm
02:00 AM 53.1°F11.7°C 41.6°F5.3°C 65% 10.3 mph WSW16.6 kmh WSW 18.1 mph29.1 kmh 30.40 in1029.5 mb 0.00 in0.0 mm 0.00 in0.0 mm 0.00 in0.0 mm
02:05 AM 53.0°F11.7°C 41.7°F5.4°C 66% 10.1 mph WSW16.3 kmh WSW 18.1 mph29.1 kmh 30.40 in1029.5 mb 0.00 in0.0 mm 0.00 in0.0 mm 0.00 in0.0 mm
02:10 AM 52.9°F11.6°C 41.8°F5.4°C 66% 9.6 mph W15.4 kmh W 16.3 mph26.2 kmh 30.40 in1029.5 mb 0.00 in0.0 mm 0.00 in0.0 mm 0.00 in0.0 mm
02:15 AM 52.7°F11.5°C 41.6°F5.3°C 66% 9.6 mph W15.4 kmh W 14.8 mph23.8 kmh 30.40 in1029.5 mb 0.00 in0.0 mm 0.00 in0.0 mm 0.00 in0.0 mm
02:20 AM 52.7°F11.5°C 41.6°F5.3°C 66% 9.6 mph W15.4 kmh W 15.2 mph24.5 kmh 30.40 in1029.5 mb 0.00 in0.0 mm 0.00 in0.0 mm 0.00 in0.0 mm
02:25 AM 52.7°F11.5°C 41.7°F5.4°C 66% 9.6 mph W15.4 kmh W 16.8 mph27.0 kmh 30.40 in1029.5 mb 0.00 in0.0 mm 0.00 in0.0 mm 0.00 in0.0 mm
02:30 AM 52.7°F11.5°C 41.7°F5.4°C 66% 9.6 mph W15.4 kmh W 14.8 mph23.8 kmh 30.40 in1029.5 mb 0.00 in0.0 mm 0.00 in0.0 mm 0.00 in0.0 mm
02:35 AM 52.7°F11.5°C 41.7°F5.4°C 66% 9.4 mph W15.1 kmh W 14.1 mph22.7 kmh 30.40 in1029.5 mb 0.00 in0.0 mm 0.00 in0.0 mm 0.00 in0.0 mm
02:40 AM 52.6°F11.4°C 41.6°F5.3°C 66% 8.7 mph W14.0 kmh W 13.0 mph20.9 kmh 30.41 in1029.8 mb 0.00 in0.0 mm 0.00 in0.0 mm 0.00 in0.0 mm
02:45 AM 52.5°F11.4°C 41.5°F5.3°C 66% 8.7 mph W14.0 kmh W 18.6 mph29.9 kmh 30.41 in1029.8 mb 0.00 in0.0 mm 0.00 in0.0 mm 0.00 in0.0 mm
02:50 AM 52.5°F11.4°C 41.8°F5.4°C 67% 8.5 mph W13.7 kmh W 14.8 mph23.8 kmh 30.41 in1029.8 mb 0.00 in0.0 mm 0.00 in0.0 mm 0.00 in0.0 mm
02:55 AM 52.4°F11.3°C 41.8°F5.4°C 67% 9.0 mph WSW14.5 kmh WSW 16.3 mph26.2 kmh 30.41 in1029.8 mb 0.00 in0.0 mm 0.00 in0.0 mm 0.00 in0.0 mm
03:00 AM 52.3°F11.3°C 41.7°F5.4°C 67% 10.3 mph WSW16.6 kmh WSW 19.0 mph30.6 kmh 30.41 in1029.8 mb 0.00 in0.0 mm 0.00 in0.0 mm 0.00 in0.0 mm
03:05 AM 52.3°F11.3°C 41.7°F5.4°C 67% 10.4 mph WSW16.7 kmh WSW 16.3 mph26.2 kmh 30.41 in1029.8 mb 0.00 in0.0 mm 0.00 in0.0 mm 0.00 in0.0 mm
03:10 AM 52.3°F11.3°C 41.7°F5.4°C 67% 10.7 mph WSW17.2 kmh WSW 17.0 mph27.4 kmh 30.41 in1029.8 mb 0.00 in0.0 mm 0.00 in0.0 mm 0.00 in0.0 mm
03:15 AM 52.3°F11.3°C 41.7°F5.4°C 67% 10.2 mph WSW16.4 kmh WSW 13.0 mph20.9 kmh 30.41 in1029.8 mb 0.00 in0.0 mm 0.00 in0.0 mm 0.00 in0.0 mm
03:20 AM 52.3°F11.3°C 41.7°F5.4°C 67% 8.7 mph WSW14.0 kmh WSW 17.4 mph28.0 kmh 30.41 in1029.8 mb 0.00 in0.0 mm 0.00 in0.0 mm 0.00 in0.0 mm
03:25 AM 52.2°F11.2°C 41.5°F5.3°C 67% 9.1 mph WSW14.6 kmh WSW 22.6 mph36.4 kmh 30.41 in1029.8 mb 0.00 in0.0 mm 0.00 in0.0 mm 0.00 in0.0 mm
03:30 AM 52.2°F11.2°C 41.5°F5.3°C 67% 10.3 mph WSW16.6 kmh WSW 24.6 mph39.6 kmh 30.42 in1030.1 mb 0.00 in0.0 mm 0.00 in0.0 mm 0.00 in0.0 mm
03:35 AM 52.3°F11.3°C 41.7°F5.4°C 67% 11.3 mph WSW18.2 kmh WSW 20.4 mph32.8 kmh 30.42 in1030.1 mb 0.00 in0.0 mm 0.00 in0.0 mm 0.00 in0.0 mm
03:40 AM 52.3°F11.3°C 41.7°F5.4°C 67% 14.1 mph W22.7 kmh W 21.5 mph34.6 kmh 30.41 in1029.8 mb 0.00 in0.0 mm 0.00 in0.0 mm 0.00 in0.0 mm
03:45 AM 52.3°F11.3°C 41.7°F5.4°C 67% 14.1 mph W22.7 kmh W 20.1 mph32.3 kmh 30.41 in1029.8 mb 0.00 in0.0 mm 0.00 in0.0 mm 0.00 in0.0 mm
03:50 AM 52.3°F11.3°C 41.7°F5.4°C 67% 14.1 mph W22.7 kmh W 19.0 mph30.6 kmh 30.41 in1029.8 mb 0.00 in0.0 mm 0.00 in0.0 mm 0.00 in0.0 mm
03:55 AM 52.3°F11.3°C 41.7°F5.4°C 67% 13.5 mph W21.7 kmh W 17.9 mph28.8 kmh 30.42 in1030.1 mb 0.00 in0.0 mm 0.00 in0.0 mm 0.00 in0.0 mm
04:00 AM 52.2°F11.2°C 41.6°F5.3°C 67% 11.9 mph WSW19.2 kmh WSW 18.6 mph29.9 kmh 30.42 in1030.1 mb 0.00 in0.0 mm 0.00 in0.0 mm 0.00 in0.0 mm
04:05 AM 52.0°F11.1°C 41.4°F5.2°C 67% 12.0 mph WSW19.3 kmh WSW 18.6 mph29.9 kmh 30.42 in1030.1 mb 0.00 in0.0 mm 0.00 in0.0 mm 0.00 in0.0 mm
04:10 AM 51.6°F10.9°C 41.4°F5.2°C 68% 12.5 mph WSW20.1 kmh WSW 18.1 mph29.1 kmh 30.42 in1030.1 mb 0.00 in0.0 mm 0.00 in0.0 mm 0.00 in0.0 mm
04:15 AM 51.4°F10.8°C 41.4°F5.2°C 68% 12.4 mph WSW20.0 kmh WSW 15.9 mph25.6 kmh 30.42 in1030.1 mb 0.00 in0.0 mm 0.00 in0.0 mm 0.00 in0.0 mm
04:20 AM 51.4°F10.8°C 41.6°F5.3°C 69% 11.9 mph WSW19.2 kmh WSW 21.3 mph34.3 kmh 30.42 in1030.1 mb 0.00 in0.0 mm 0.00 in0.0 mm 0.00 in0.0 mm
04:25 AM 51.4°F10.8°C 41.6°F5.3°C 69% 12.0 mph WSW19.3 kmh WSW 20.1 mph32.3 kmh 30.42 in1030.1 mb 0.00 in0.0 mm 0.00 in0.0 mm 0.00 in0.0 mm
04:30 AM 51.5°F10.8°C 41.6°F5.3°C 69% 12.5 mph WSW20.1 kmh WSW 23.0 mph37.0 kmh 30.42 in1030.1 mb 0.00 in0.0 mm 0.00 in0.0 mm 0.00 in0.0 mm
04:35 AM 51.5°F10.8°C 41.7°F5.4°C 69% 12.8 mph WSW20.6 kmh WSW 21.5 mph34.6 kmh 30.42 in1030.1 mb 0.00 in0.0 mm 0.00 in0.0 mm 0.00 in0.0 mm
04:40 AM 51.6°F10.9°C 41.8°F5.4°C 69% 13.4 mph WSW21.6 kmh WSW 19.2 mph30.9 kmh 30.42 in1030.1 mb 0.00 in0.0 mm 0.00 in0.0 mm 0.00 in0.0 mm
04:45 AM 51.6°F10.9°C 41.8°F5.4°C 69% 13.1 mph WSW21.1 kmh WSW 19.7 mph31.7 kmh 30.43 in1030.5 mb 0.00 in0.0 mm 0.00 in0.0 mm 0.00 in0.0 mm
04:50 AM 51.6°F10.9°C 41.8°F5.4°C 69% 12.3 mph WSW19.8 kmh WSW 19.7 mph31.7 kmh 30.43 in1030.5 mb 0.00 in0.0 mm 0.00 in0.0 mm 0.00 in0.0 mm
04:55 AM 51.6°F10.9°C 41.8°F5.4°C 69% 12.5 mph WSW20.1 kmh WSW 19.7 mph31.7 kmh 30.42 in1030.1 mb 0.00 in0.0 mm 0.00 in0.0 mm 0.00 in0.0 mm
05:00 AM 51.6°F10.9°C 41.7°F5.4°C 69% 13.0 mph WSW20.9 kmh WSW 20.1 mph32.3 kmh 30.42 in1030.1 mb 0.00 in0.0 mm 0.00 in0.0 mm 0.00 in0.0 mm
05:05 AM 51.6°F10.9°C 41.8°F5.4°C 69% 13.3 mph WSW21.4 kmh WSW 20.1 mph32.3 kmh 30.42 in1030.1 mb 0.00 in0.0 mm 0.00 in0.0 mm 0.00 in0.0 mm
05:10 AM 51.6°F10.9°C 41.8°F5.4°C 69% 14.1 mph WSW22.7 kmh WSW 18.1 mph29.1 kmh 30.42 in1030.1 mb 0.00 in0.0 mm 0.00 in0.0 mm 0.00 in0.0 mm
05:15 AM 51.6°F10.9°C 41.8°F5.4°C 69% 14.0 mph WSW22.5 kmh WSW 19.7 mph31.7 kmh 30.42 in1030.1 mb 0.00 in0.0 mm 0.00 in0.0 mm 0.00 in0.0 mm
05:20 AM 51.6°F10.9°C 41.8°F5.4°C 69% 13.6 mph WSW21.9 kmh WSW 16.8 mph27.0 kmh 30.42 in1030.1 mb 0.00 in0.0 mm 0.00 in0.0 mm 0.00 in0.0 mm
05:25 AM 51.6°F10.9°C 41.8°F5.4°C 69% 13.2 mph WSW21.2 kmh WSW 18.6 mph29.9 kmh 30.42 in1030.1 mb 0.00 in0.0 mm 0.00 in0.0 mm 0.00 in0.0 mm
05:30 AM 51.5°F10.8°C 41.8°F5.4°C 69% 11.9 mph WSW19.2 kmh WSW 18.1 mph29.1 kmh 30.42 in1030.1 mb 0.00 in0.0 mm 0.00 in0.0 mm 0.00 in0.0 mm
05:35 AM 51.4°F10.8°C 41.9°F5.5°C 70% 12.1 mph WSW19.5 kmh WSW 19.2 mph30.9 kmh 30.42 in1030.1 mb 0.00 in0.0 mm 0.00 in0.0 mm 0.00 in0.0 mm
05:40 AM 51.2°F10.7°C 41.8°F5.4°C 70% 13.0 mph WSW20.9 kmh WSW 17.4 mph28.0 kmh 30.42 in1030.1 mb 0.00 in0.0 mm 0.00 in0.0 mm 0.00 in0.0 mm
05:45 AM 51.1°F10.6°C 41.7°F5.4°C 70% 13.0 mph WSW20.9 kmh WSW 18.6 mph29.9 kmh 30.42 in1030.1 mb 0.00 in0.0 mm 0.00 in0.0 mm 0.00 in0.0 mm
05:50 AM 51.1°F10.6°C 42.1°F5.6°C 71% 13.0 mph WSW20.9 kmh WSW 20.1 mph32.3 kmh 30.42 in1030.1 mb 0.00 in0.0 mm 0.00 in0.0 mm 0.00 in0.0 mm
05:55 AM 51.3°F10.7°C 42.2°F5.7°C 71% 12.8 mph WSW20.6 kmh WSW 18.1 mph29.1 kmh 30.42 in1030.1 mb 0.00 in0.0 mm 0.00 in0.0 mm 0.00 in0.0 mm
06:00 AM 51.3°F10.7°C 42.0°F5.6°C 70% 12.3 mph WSW19.8 kmh WSW 18.6 mph29.9 kmh 30.42 in1030.1 mb 0.00 in0.0 mm 0.00 in0.0 mm 0.00 in0.0 mm
06:05 AM 51.4°F10.8°C 42.0°F5.6°C 70% 12.0 mph WSW19.3 kmh WSW 15.2 mph24.5 kmh 30.42 in1030.1 mb 0.00 in0.0 mm 0.00 in0.0 mm 0.00 in0.0 mm
06:10 AM 51.4°F10.8°C 42.0°F5.6°C 70% 11.2 mph WSW18.0 kmh WSW 17.4 mph28.0 kmh 30.42 in1030.1 mb 0.00 in0.0 mm 0.00 in0.0 mm 0.00 in0.0 mm
06:15 AM 51.5°F10.8°C 42.0°F5.6°C 70% 11.1 mph WSW17.9 kmh WSW 15.2 mph24.5 kmh 30.42 in1030.1 mb 0.00 in0.0 mm 0.00 in0.0 mm 0.00 in0.0 mm
06:20 AM 51.6°F10.9°C 42.1°F5.6°C 70% 10.7 mph WSW17.2 kmh WSW 15.7 mph25.3 kmh 30.42 in1030.1 mb 0.00 in0.0 mm 0.00 in0.0 mm 0.00 in0.0 mm
06:25 AM 51.6°F10.9°C 42.2°F5.7°C 70% 10.5 mph WSW16.9 kmh WSW 14.5 mph23.3 kmh 30.42 in1030.1 mb 0.00 in0.0 mm 0.00 in0.0 mm 0.00 in0.0 mm
06:30 AM 51.6°F10.9°C 41.9°F5.5°C 69% 9.6 mph WSW15.4 kmh WSW 14.5 mph23.3 kmh 30.43 in1030.5 mb 0.00 in0.0 mm 0.00 in0.0 mm 0.00 in0.0 mm
06:35 AM 51.6°F10.9°C 41.8°F5.4°C 69% 9.7 mph WSW15.6 kmh WSW 13.6 mph21.9 kmh 30.43 in1030.5 mb 0.00 in0.0 mm 0.00 in0.0 mm 0.00 in0.0 mm
06:40 AM 51.6°F10.9°C 41.8°F5.4°C 69% 10.1 mph W16.3 kmh W 14.8 mph23.8 kmh 30.43 in1030.5 mb 0.00 in0.0 mm 0.00 in0.0 mm 0.00 in0.0 mm
06:45 AM 51.4°F10.8°C 41.6°F5.3°C 69% 10.1 mph W16.3 kmh W 13.0 mph20.9 kmh 30.43 in1030.5 mb 0.00 in0.0 mm 0.00 in0.0 mm 0.00 in0.0 mm
06:50 AM 51.4°F10.8°C 41.6°F5.3°C 69% 10.1 mph W16.3 kmh W 12.3 mph19.8 kmh 30.43 in1030.5 mb 0.00 in0.0 mm 0.00 in0.0 mm 0.00 in0.0 mm
06:55 AM 51.3°F10.7°C 41.8°F5.4°C 70% 9.6 mph W15.4 kmh W 10.7 mph17.2 kmh 30.43 in1030.5 mb 0.00 in0.0 mm 0.00 in0.0 mm 0.00 in0.0 mm
07:00 AM 51.2°F10.7°C 41.7°F5.4°C 70% 8.1 mph WSW13.0 kmh WSW 8.1 mph13.0 kmh 30.43 in1030.5 mb 0.00 in0.0 mm 0.00 in0.0 mm 0.00 in0.0 mm
07:05 AM 51.1°F10.6°C 41.6°F5.3°C 70% 7.5 mph WSW12.1 kmh WSW 9.6 mph15.4 kmh 30.43 in1030.5 mb 0.00 in0.0 mm 0.00 in0.0 mm 0.00 in0.0 mm
07:10 AM 51.1°F10.6°C 41.6°F5.3°C 70% 5.8 mph WSW9.3 kmh WSW 11.9 mph19.2 kmh 30.44 in1030.8 mb 0.00 in0.0 mm 0.00 in0.0 mm 0.00 in0.0 mm
07:15 AM 51.1°F10.6°C 41.6°F5.3°C 70% 6.5 mph WSW10.5 kmh WSW 14.1 mph22.7 kmh 30.44 in1030.8 mb 0.00 in0.0 mm 0.00 in0.0 mm 0.00 in0.0 mm
07:20 AM 51.1°F10.6°C 41.6°F5.3°C 70% 8.5 mph WSW13.7 kmh WSW 16.3 mph26.2 kmh 30.44 in1030.8 mb 0.00 in0.0 mm 0.00 in0.0 mm 0.00 in0.0 mm
07:25 AM 50.8°F10.4°C 41.4°F5.2°C 70% 9.0 mph WSW14.5 kmh WSW 14.5 mph23.3 kmh 30.45 in1031.2 mb 0.00 in0.0 mm 0.00 in0.0 mm 0.00 in0.0 mm
07:30 AM 50.7°F10.4°C 41.3°F5.2°C 70% 10.3 mph WSW16.6 kmh WSW 13.0 mph20.9 kmh 30.45 in1031.2 mb 0.00 in0.0 mm 0.00 in0.0 mm 0.00 in0.0 mm
07:35 AM 50.6°F10.3°C 41.5°F5.3°C 71% 9.6 mph WSW15.4 kmh WSW 11.9 mph19.2 kmh 30.45 in1031.2 mb 0.00 in0.0 mm 0.00 in0.0 mm 0.00 in0.0 mm
07:40 AM 50.5°F10.3°C 41.5°F5.3°C 71% 7.6 mph WSW12.2 kmh WSW 13.4 mph21.6 kmh 30.45 in1031.2 mb 0.00 in0.0 mm 0.00 in0.0 mm 0.00 in0.0 mm
07:45 AM 50.4°F10.2°C 41.3°F5.2°C 71% 8.0 mph WSW12.9 kmh WSW 14.5 mph23.3 kmh 30.45 in1031.2 mb 0.00 in0.0 mm 0.00 in0.0 mm 0.00 in0.0 mm
07:50 AM 50.3°F10.2°C 41.3°F5.2°C 71% 9.2 mph W14.8 kmh W 14.5 mph23.3 kmh 30.45 in1031.2 mb 0.00 in0.0 mm 0.00 in0.0 mm 0.00 in0.0 mm
07:55 AM 50.2°F10.1°C 41.1°F5.1°C 71% 9.2 mph W14.8 kmh W 11.2 mph18.0 kmh 30.46 in1031.5 mb 0.00 in0.0 mm 0.00 in0.0 mm 0.00 in0.0 mm
08:00 AM 50.1°F10.1°C 41.1°F5.1°C 71% 9.2 mph W14.8 kmh W 12.5 mph20.1 kmh 30.46 in1031.5 mb 0.00 in0.0 mm 0.00 in0.0 mm 0.00 in0.0 mm
08:05 AM 49.9°F9.9°C 41.3°F5.2°C 72% 9.2 mph W14.8 kmh W 13.4 mph21.6 kmh 30.46 in1031.5 mb 0.00 in0.0 mm 0.00 in0.0 mm 0.00 in0.0 mm
08:10 AM 49.8°F9.9°C 41.2°F5.1°C 72% 9.2 mph WSW14.8 kmh WSW 13.0 mph20.9 kmh 30.46 in1031.5 mb 0.00 in0.0 mm 0.00 in0.0 mm 0.00 in0.0 mm
08:15 AM 49.8°F9.9°C 41.2°F5.1°C 72% 9.4 mph W15.1 kmh W 15.2 mph24.5 kmh 30.46 in1031.5 mb 0.00 in0.0 mm 0.00 in0.0 mm 0.00 in0.0 mm
08:20 AM 49.9°F9.9°C 41.2°F5.1°C 72% 10.1 mph W16.3 kmh W 17.0 mph27.4 kmh 30.46 in1031.5 mb 0.00 in0.0 mm 0.00 in0.0 mm 0.00 in0.0 mm
08:25 AM 49.9°F9.9°C 41.3°F5.2°C 72% 9.8 mph W15.8 kmh W 16.8 mph27.0 kmh 30.46 in1031.5 mb 0.00 in0.0 mm 0.00 in0.0 mm 0.00 in0.0 mm
08:30 AM 50.1°F10.1°C 41.4°F5.2°C 72% 9.2 mph WSW14.8 kmh WSW 14.5 mph23.3 kmh 30.46 in1031.5 mb 0.00 in0.0 mm 0.00 in0.0 mm 0.00 in0.0 mm
08:35 AM 50.3°F10.2°C 41.5°F5.3°C 72% 9.5 mph WSW15.3 kmh WSW 13.0 mph20.9 kmh 30.46 in1031.5 mb 0.00 in0.0 mm 0.00 in0.0 mm 0.00 in0.0 mm
08:40 AM 50.5°F10.3°C 41.4°F5.2°C 71% 10.3 mph WSW16.6 kmh WSW 12.5 mph20.1 kmh 30.46 in1031.5 mb 0.00 in0.0 mm 0.00 in0.0 mm 0.00 in0.0 mm
08:45 AM 50.7°F10.4°C 41.6°F5.3°C 71% 10.1 mph WSW16.3 kmh WSW 14.1 mph22.7 kmh 30.46 in1031.5 mb 0.00 in0.0 mm 0.00 in0.0 mm 0.00 in0.0 mm
08:50 AM 51.0°F10.6°C 41.7°F5.4°C 70% 9.6 mph WSW15.4 kmh WSW 15.7 mph25.3 kmh 30.46 in1031.5 mb 0.00 in0.0 mm 0.00 in0.0 mm 0.00 in0.0 mm
08:55 AM 51.3°F10.7°C 41.8°F5.4°C 70% 9.7 mph WSW15.6 kmh WSW 15.9 mph25.6 kmh 30.46 in1031.5 mb 0.00 in0.0 mm 0.00 in0.0 mm 0.00 in0.0 mm
09:00 AM 51.5°F10.8°C 41.7°F5.4°C 69% 10.1 mph WSW16.3 kmh WSW 17.9 mph28.8 kmh 30.47 in1031.8 mb 0.00 in0.0 mm 0.00 in0.0 mm 0.00 in0.0 mm
09:05 AM 51.8°F11.0°C 41.8°F5.4°C 69% 10.4 mph WSW16.7 kmh WSW 18.1 mph29.1 kmh 30.47 in1031.8 mb 0.00 in0.0 mm 0.00 in0.0 mm 0.00 in0.0 mm
09:10 AM 52.0°F11.1°C 41.8°F5.4°C 68% 11.2 mph WSW18.0 kmh WSW 15.7 mph25.3 kmh 30.47 in1031.8 mb 0.00 in0.0 mm 0.00 in0.0 mm 0.00 in0.0 mm
09:15 AM 52.1°F11.2°C 41.9°F5.5°C 68% 10.9 mph WSW17.5 kmh WSW 13.4 mph21.6 kmh 30.47 in1031.8 mb 0.00 in0.0 mm 0.00 in0.0 mm 0.00 in0.0 mm
09:20 AM 52.3°F11.3°C 41.9°F5.5°C 68% 10.1 mph WSW16.3 kmh WSW 11.4 mph18.3 kmh 30.47 in1031.8 mb 0.00 in0.0 mm 0.00 in0.0 mm 0.00 in0.0 mm
09:25 AM 52.5°F11.4°C 41.8°F5.4°C 67% 9.6 mph WSW15.4 kmh WSW 12.5 mph20.1 kmh 30.48 in1032.2 mb 0.00 in0.0 mm 0.00 in0.0 mm 0.00 in0.0 mm
09:30 AM 52.7°F11.5°C 42.1°F5.6°C 67% 8.1 mph WSW13.0 kmh WSW 12.5 mph20.1 kmh 30.48 in1032.2 mb 0.00 in0.0 mm 0.00 in0.0 mm 0.00 in0.0 mm
09:35 AM 52.9°F11.6°C 42.3°F5.7°C 67% 7.6 mph WSW12.2 kmh WSW 10.7 mph17.2 kmh 30.48 in1032.2 mb 0.00 in0.0 mm 0.00 in0.0 mm 0.00 in0.0 mm
09:40 AM 53.3°F11.8°C 42.5°F5.8°C 67% 6.3 mph SW10.1 kmh SW 8.7 mph14.0 kmh 30.48 in1032.2 mb 0.00 in0.0 mm 0.00 in0.0 mm 0.00 in0.0 mm
09:45 AM 53.7°F12.1°C 42.6°F5.9°C 66% 6.3 mph WSW10.1 kmh WSW 11.9 mph19.2 kmh 30.48 in1032.2 mb 0.00 in0.0 mm 0.00 in0.0 mm 0.00 in0.0 mm
09:50 AM 54.0°F12.2°C 42.6°F5.9°C 65% 6.3 mph WSW10.1 kmh WSW 18.1 mph29.1 kmh 30.48 in1032.2 mb 0.00 in0.0 mm 0.00 in0.0 mm 0.00 in0.0 mm
09:55 AM 54.1°F12.3°C 42.6°F5.9°C 65% 7.5 mph WSW12.1 kmh WSW 17.0 mph27.4 kmh 30.49 in1032.5 mb 0.00 in0.0 mm 0.00 in0.0 mm 0.00 in0.0 mm
10:00 AM 54.3°F12.4°C 42.8°F6.0°C 65% 11.2 mph WSW18.0 kmh WSW 18.6 mph29.9 kmh 30.49 in1032.5 mb 0.00 in0.0 mm 0.00 in0.0 mm 0.00 in0.0 mm
10:05 AM 54.8°F12.7°C 42.9°F6.1°C 64% 11.1 mph WSW17.9 kmh WSW 14.1 mph22.7 kmh 30.49 in1032.5 mb 0.00 in0.0 mm 0.00 in0.0 mm 0.00 in0.0 mm
10:10 AM 55.1°F12.8°C 42.9°F6.1°C 64% 10.7 mph WSW17.2 kmh WSW 16.8 mph27.0 kmh 30.49 in1032.5 mb 0.00 in0.0 mm 0.00 in0.0 mm 0.00 in0.0 mm
10:15 AM 55.5°F13.1°C 43.1°F6.2°C 63% 10.3 mph WSW16.6 kmh WSW 14.8 mph23.8 kmh 30.49 in1032.5 mb 0.00 in0.0 mm 0.00 in0.0 mm 0.00 in0.0 mm
10:20 AM 55.8°F13.2°C 43.2°F6.2°C 62% 9.2 mph WSW14.8 kmh WSW 14.5 mph23.3 kmh 30.49 in1032.5 mb 0.00 in0.0 mm 0.00 in0.0 mm 0.00 in0.0 mm
10:25 AM 55.9°F13.3°C 43.1°F6.2°C 62% 9.3 mph WSW15.0 kmh WSW 18.1 mph29.1 kmh 30.50 in1032.8 mb 0.00 in0.0 mm 0.00 in0.0 mm 0.00 in0.0 mm
10:30 AM 55.9°F13.3°C 43.1°F6.2°C 62% 9.6 mph WSW15.4 kmh WSW 18.6 mph29.9 kmh 30.50 in1032.8 mb 0.00 in0.0 mm 0.00 in0.0 mm 0.00 in0.0 mm
10:35 AM 56.1°F13.4°C 43.2°F6.2°C 62% 10.5 mph WSW16.9 kmh WSW 19.2 mph30.9 kmh 30.50 in1032.8 mb 0.00 in0.0 mm 0.00 in0.0 mm 0.00 in0.0 mm
10:40 AM 56.2°F13.4°C 43.3°F6.3°C 62% 13.0 mph WSW20.9 kmh WSW 14.8 mph23.8 kmh 30.50 in1032.8 mb 0.00 in0.0 mm 0.00 in0.0 mm 0.00 in0.0 mm
10:45 AM 56.6°F13.7°C 43.5°F6.4°C 62% 12.1 mph WSW19.5 kmh WSW 16.3 mph26.2 kmh 30.50 in1032.8 mb 0.00 in0.0 mm 0.00 in0.0 mm 0.00 in0.0 mm
10:50 AM 57.0°F13.9°C 43.6°F6.4°C 61% 9.6 mph WSW15.4 kmh WSW 16.8 mph27.0 kmh 30.50 in1032.8 mb 0.00 in0.0 mm 0.00 in0.0 mm 0.00 in0.0 mm
10:55 AM 57.5°F14.2°C 43.7°F6.5°C 60% 10.1 mph WSW16.3 kmh WSW 14.1 mph22.7 kmh 30.50 in1032.8 mb 0.00 in0.0 mm 0.00 in0.0 mm 0.00 in0.0 mm
11:00 AM 57.9°F14.4°C 43.9°F6.6°C 60% 11.4 mph WSW18.3 kmh WSW 12.3 mph19.8 kmh 30.50 in1032.8 mb 0.00 in0.0 mm 0.00 in0.0 mm 0.00 in0.0 mm
11:05 AM 58.4°F14.7°C 44.0°F6.7°C 59% 10.6 mph WSW17.1 kmh WSW 11.4 mph18.3 kmh 30.50 in1032.8 mb 0.00 in0.0 mm 0.00 in0.0 mm 0.00 in0.0 mm
11:10 AM 58.7°F14.8°C 44.0°F6.7°C 58% 8.1 mph W13.0 kmh W 9.6 mph15.4 kmh 30.50 in1032.8 mb 0.00 in0.0 mm 0.00 in0.0 mm 0.00 in0.0 mm
11:15 AM 59.1°F15.1°C 43.9°F6.6°C 57% 7.9 mph WSW12.7 kmh WSW 11.9 mph19.2 kmh 30.50 in1032.8 mb 0.00 in0.0 mm 0.00 in0.0 mm 0.00 in0.0 mm
11:20 AM 59.3°F15.2°C 44.1°F6.7°C 57% 7.4 mph WSW11.9 kmh WSW 12.3 mph19.8 kmh 30.50 in1032.8 mb 0.00 in0.0 mm 0.00 in0.0 mm 0.00 in0.0 mm
11:25 AM 59.5°F15.3°C 44.0°F6.7°C 56% 7.6 mph WSW12.2 kmh WSW 13.0 mph20.9 kmh 30.50 in1032.8 mb 0.00 in0.0 mm 0.00 in0.0 mm 0.00 in0.0 mm
11:30 AM 59.6°F15.3°C 43.9°F6.6°C 56% 8.1 mph WSW13.0 kmh WSW 11.4 mph18.3 kmh 30.50 in1032.8 mb 0.00 in0.0 mm 0.00 in0.0 mm 0.00 in0.0 mm
11:35 AM 59.7°F15.4°C 44.0°F6.7°C 56% 8.1 mph WSW13.0 kmh WSW 11.4 mph18.3 kmh 30.50 in1032.8 mb 0.00 in0.0 mm 0.00 in0.0 mm 0.00 in0.0 mm
11:40 AM 60.0°F15.6°C 44.3°F6.8°C 56% 8.1 mph W13.0 kmh W 10.1 mph16.3 kmh 30.50 in1032.8 mb 0.00 in0.0 mm 0.00 in0.0 mm 0.00 in0.0 mm
11:45 AM 60.2°F15.7°C 44.4°F6.9°C 56% 7.8 mph WSW12.6 kmh WSW 11.4 mph18.3 kmh 30.50 in1032.8 mb 0.00 in0.0 mm 0.00 in0.0 mm 0.00 in0.0 mm
11:50 AM 60.2°F15.7°C 44.0°F6.7°C 55% 6.9 mph WSW11.1 kmh WSW 12.5 mph20.1 kmh 30.50 in1032.8 mb 0.00 in0.0 mm 0.00 in0.0 mm 0.00 in0.0 mm
11:55 AM 60.3°F15.7°C 44.0°F6.7°C 55% 7.3 mph WSW11.7 kmh WSW 11.4 mph18.3 kmh 30.50 in1032.8 mb 0.00 in0.0 mm 0.00 in0.0 mm 0.00 in0.0 mm
12:00 PM 60.3°F15.7°C 44.3°F6.8°C 55% 8.5 mph WSW13.7 kmh WSW 9.2 mph14.8 kmh 30.50 in1032.8 mb 0.00 in0.0 mm 0.00 in0.0 mm 0.00 in0.0 mm
12:05 PM 60.2°F15.7°C 45.0°F7.2°C 57% 8.0 mph SW12.9 kmh SW 9.6 mph15.4 kmh 30.50 in1032.8 mb 0.00 in0.0 mm 0.00 in0.0 mm 0.00 in0.0 mm
12:10 PM 60.2°F15.7°C 45.6°F7.6°C 59% 6.5 mph SW10.5 kmh SW 7.4 mph11.9 kmh 30.49 in1032.5 mb 0.00 in0.0 mm 0.00 in0.0 mm 0.00 in0.0 mm
12:15 PM 60.3°F15.7°C 45.4°F7.4°C 58% 6.0 mph SW9.7 kmh SW 8.5 mph13.7 kmh 30.49 in1032.5 mb 0.00 in0.0 mm 0.00 in0.0 mm 0.00 in0.0 mm
12:20 PM 60.3°F15.7°C 45.4°F7.4°C 58% 4.7 mph SW7.6 kmh SW 10.1 mph16.3 kmh 30.49 in1032.5 mb 0.00 in0.0 mm 0.00 in0.0 mm 0.00 in0.0 mm
12:25 PM 60.3°F15.7°C 45.4°F7.4°C 58% 5.3 mph SW8.5 kmh SW 9.6 mph15.4 kmh 30.49 in1032.5 mb 0.00 in0.0 mm 0.00 in0.0 mm 0.00 in0.0 mm
12:30 PM 60.3°F15.7°C 45.3°F7.4°C 58% 6.9 mph SW11.1 kmh SW 9.6 mph15.4 kmh 30.48 in1032.2 mb 0.00 in0.0 mm 0.00 in0.0 mm 0.00 in0.0 mm
12:35 PM 60.3°F15.7°C 45.3°F7.4°C 58% 6.9 mph SW11.1 kmh SW 10.7 mph17.2 kmh 30.48 in1032.2 mb 0.00 in0.0 mm 0.00 in0.0 mm 0.00 in0.0 mm
12:40 PM 60.4°F15.8°C 45.1°F7.3°C 57% 6.9 mph SW11.1 kmh SW 10.1 mph16.3 kmh 30.48 in1032.2 mb 0.00 in0.0 mm 0.00 in0.0 mm 0.00 in0.0 mm
12:45 PM 60.6°F15.9°C 45.3°F7.4°C 57% 6.9 mph SW11.1 kmh SW 9.2 mph14.8 kmh 30.48 in1032.2 mb 0.00 in0.0 mm 0.00 in0.0 mm 0.00 in0.0 mm
12:50 PM 60.9°F16.1°C 45.6°F7.6°C 57% 6.9 mph SW11.1 kmh SW 9.2 mph14.8 kmh 30.48 in1032.2 mb 0.00 in0.0 mm 0.00 in0.0 mm 0.00 in0.0 mm
12:55 PM 61.1°F16.2°C 45.4°F7.4°C 56% 6.9 mph SW11.1 kmh SW 10.7 mph17.2 kmh 30.47 in1031.8 mb 0.00 in0.0 mm 0.00 in0.0 mm 0.00 in0.0 mm
01:00 PM 61.2°F16.2°C 45.3°F7.4°C 56% 6.9 mph SW11.1 kmh SW 9.6 mph15.4 kmh 30.47 in1031.8 mb 0.00 in0.0 mm 0.00 in0.0 mm 0.00 in0.0 mm
01:05 PM 61.0°F16.1°C 45.1°F7.3°C 56% 6.8 mph SW10.9 kmh SW 10.1 mph16.3 kmh 30.47 in1031.8 mb 0.00 in0.0 mm 0.00 in0.0 mm 0.00 in0.0 mm
01:10 PM 60.7°F15.9°C 45.0°F7.2°C 56% 6.5 mph SSW10.5 kmh SSW 10.7 mph17.2 kmh 30.47 in1031.8 mb 0.00 in0.0 mm 0.00 in0.0 mm 0.00 in0.0 mm
01:15 PM 61.0°F16.1°C 45.3°F7.4°C 56% 6.7 mph SSW10.8 kmh SSW 11.2 mph18.0 kmh 30.46 in1031.5 mb 0.00 in0.0 mm 0.00 in0.0 mm 0.00 in0.0 mm
01:20 PM 61.1°F16.2°C 45.3°F7.4°C 56% 7.4 mph SSW11.9 kmh SSW 11.9 mph19.2 kmh 30.46 in1031.5 mb 0.00 in0.0 mm 0.00 in0.0 mm 0.00 in0.0 mm
01:25 PM 61.3°F16.3°C 45.3°F7.4°C 56% 7.4 mph SSW11.9 kmh SSW 11.9 mph19.2 kmh 30.46 in1031.5 mb 0.00 in0.0 mm 0.00 in0.0 mm 0.00 in0.0 mm
01:30 PM 61.5°F16.4°C 44.8°F7.1°C 54% 7.4 mph SSW11.9 kmh SSW 10.7 mph17.2 kmh 30.46 in1031.5 mb 0.00 in0.0 mm 0.00 in0.0 mm 0.00 in0.0 mm
01:35 PM 61.4°F16.3°C 44.7°F7.1°C 54% 8.0 mph SSW12.9 kmh SSW 21.9 mph35.2 kmh 30.46 in1031.5 mb 0.00 in0.0 mm 0.00 in0.0 mm 0.00 in0.0 mm
01:40 PM 61.4°F16.3°C 44.6°F7.0°C 54% 9.6 mph SSW15.4 kmh SSW 20.8 mph33.5 kmh 30.45 in1031.2 mb 0.00 in0.0 mm 0.00 in0.0 mm 0.00 in0.0 mm
01:45 PM 61.6°F16.4°C 44.8°F7.1°C 54% 10.1 mph SSW16.3 kmh SSW 22.4 mph36.0 kmh 30.45 in1031.2 mb 0.00 in0.0 mm 0.00 in0.0 mm 0.00 in0.0 mm
01:50 PM 61.9°F16.6°C 45.4°F7.4°C 55% 11.4 mph SW18.3 kmh SW 17.4 mph28.0 kmh 30.45 in1031.2 mb 0.00 in0.0 mm 0.00 in0.0 mm 0.00 in0.0 mm
01:55 PM 62.1°F16.7°C 45.5°F7.5°C 55% 11.1 mph SW17.9 kmh SW 26.4 mph42.5 kmh 30.45 in1031.2 mb 0.00 in0.0 mm 0.00 in0.0 mm 0.00 in0.0 mm
02:00 PM 62.2°F16.8°C 45.3°F7.4°C 54% 10.1 mph SW16.3 kmh SW 22.4 mph36.0 kmh 30.45 in1031.2 mb 0.00 in0.0 mm 0.00 in0.0 mm 0.00 in0.0 mm
02:05 PM 62.4°F16.9°C 45.6°F7.6°C 54% 9.4 mph SW15.1 kmh SW 11.9 mph19.2 kmh 30.45 in1031.2 mb 0.00 in0.0 mm 0.00 in0.0 mm 0.00 in0.0 mm
02:10 PM 62.7°F17.1°C 45.1°F7.3°C 53% 7.6 mph SW12.2 kmh SW 12.5 mph20.1 kmh 30.45 in1031.2 mb 0.00 in0.0 mm 0.00 in0.0 mm 0.00 in0.0 mm
02:15 PM 62.7°F17.1°C 45.0°F7.2°C 52% 7.8 mph SW12.6 kmh SW 11.9 mph19.2 kmh 30.45 in1031.2 mb 0.00 in0.0 mm 0.00 in0.0 mm 0.00 in0.0 mm
02:20 PM 62.8°F17.1°C 45.4°F7.4°C 53% 8.5 mph SW13.7 kmh SW 15.9 mph25.6 kmh 30.45 in1031.2 mb 0.00 in0.0 mm 0.00 in0.0 mm 0.00 in0.0 mm
02:25 PM 62.8°F17.1°C 44.9°F7.2°C 52% 8.7 mph SW14.0 kmh SW 15.9 mph25.6 kmh 30.44 in1030.8 mb 0.00 in0.0 mm 0.00 in0.0 mm 0.00 in0.0 mm
02:30 PM 62.8°F17.1°C 44.9°F7.2°C 52% 9.2 mph SW14.8 kmh SW 14.8 mph23.8 kmh 30.44 in1030.8 mb 0.00 in0.0 mm 0.00 in0.0 mm 0.00 in0.0 mm
02:35 PM 63.0°F17.2°C 45.1°F7.3°C 52% 9.2 mph SW14.8 kmh SW 14.5 mph23.3 kmh 30.44 in1030.8 mb 0.00 in0.0 mm 0.00 in0.0 mm 0.00 in0.0 mm
02:40 PM 63.0°F17.2°C 45.5°F7.5°C 53% 9.2 mph SW14.8 kmh SW 11.4 mph18.3 kmh 30.44 in1030.8 mb 0.00 in0.0 mm 0.00 in0.0 mm 0.00 in0.0 mm
02:45 PM 63.3°F17.4°C 45.7°F7.6°C 53% 8.9 mph SW14.3 kmh SW 12.5 mph20.1 kmh 30.44 in1030.8 mb 0.00 in0.0 mm 0.00 in0.0 mm 0.00 in0.0 mm
02:50 PM 63.3°F17.4°C 45.4°F7.4°C 52% 8.1 mph SW13.0 kmh SW 14.8 mph23.8 kmh 30.44 in1030.8 mb 0.00 in0.0 mm 0.00 in0.0 mm 0.00 in0.0 mm
02:55 PM 63.2°F17.3°C 45.4°F7.4°C 52% 8.6 mph SW13.8 kmh SW 15.7 mph25.3 kmh 30.44 in1030.8 mb 0.00 in0.0 mm 0.00 in0.0 mm 0.00 in0.0 mm
03:00 PM 63.3°F17.4°C 45.8°F7.7°C 53% 10.1 mph SW16.3 kmh SW 32.0 mph51.5 kmh 30.44 in1030.8 mb 0.00 in0.0 mm 0.00 in0.0 mm 0.00 in0.0 mm
03:05 PM 63.4°F17.4°C 45.0°F7.2°C 51% 10.1 mph SW16.3 kmh SW 29.5 mph47.5 kmh 30.44 in1030.8 mb 0.00 in0.0 mm 0.00 in0.0 mm 0.00 in0.0 mm
03:10 PM 63.3°F17.4°C 44.4°F6.9°C 50% 10.1 mph SW16.3 kmh SW 23.5 mph37.8 kmh 30.43 in1030.5 mb 0.00 in0.0 mm 0.00 in0.0 mm 0.00 in0.0 mm
03:15 PM 63.3°F17.4°C 44.5°F6.9°C 50% 10.2 mph SW16.4 kmh SW 13.0 mph20.9 kmh 30.43 in1030.5 mb 0.00 in0.0 mm 0.00 in0.0 mm 0.00 in0.0 mm
03:20 PM 63.7°F17.6°C 44.9°F7.2°C 50% 10.7 mph SW17.2 kmh SW 15.2 mph24.5 kmh 30.43 in1030.5 mb 0.00 in0.0 mm 0.00 in0.0 mm 0.00 in0.0 mm
03:25 PM 63.8°F17.7°C 44.3°F6.8°C 49% 10.6 mph SW17.1 kmh SW 16.3 mph26.2 kmh 30.43 in1030.5 mb 0.00 in0.0 mm 0.00 in0.0 mm 0.00 in0.0 mm
03:30 PM 63.8°F17.7°C 44.1°F6.7°C 49% 10.1 mph SW16.3 kmh SW 15.9 mph25.6 kmh 30.43 in1030.5 mb 0.00 in0.0 mm 0.00 in0.0 mm 0.00 in0.0 mm
03:35 PM 64.0°F17.8°C 43.8°F6.6°C 48% 9.7 mph SW15.6 kmh SW 15.7 mph25.3 kmh 30.43 in1030.5 mb 0.00 in0.0 mm 0.00 in0.0 mm 0.00 in0.0 mm
03:40 PM 64.0°F17.8°C 43.9°F6.6°C 48% 8.7 mph SW14.0 kmh SW 16.3 mph26.2 kmh 30.43 in1030.5 mb 0.00 in0.0 mm 0.00 in0.0 mm 0.00 in0.0 mm
03:45 PM 64.0°F17.8°C 44.0°F6.7°C 48% 9.4 mph SW15.1 kmh SW 14.8 mph23.8 kmh 30.43 in1030.5 mb 0.00 in0.0 mm 0.00 in0.0 mm 0.00 in0.0 mm
03:50 PM 63.9°F17.7°C 44.4°F6.9°C 49% 11.4 mph SSW18.3 kmh SSW 13.4 mph21.6 kmh 30.43 in1030.5 mb 0.00 in0.0 mm 0.00 in0.0 mm 0.00 in0.0 mm
03:55 PM 63.7°F17.6°C 44.7°F7.1°C 50% 10.7 mph SSW17.2 kmh SSW 13.4 mph21.6 kmh 30.44 in1030.8 mb 0.00 in0.0 mm 0.00 in0.0 mm 0.00 in0.0 mm
04:00 PM 63.7°F17.6°C 44.7°F7.1°C 50% 8.5 mph SSW13.7 kmh SSW 11.9 mph19.2 kmh 30.44 in1030.8 mb 0.00 in0.0 mm 0.00 in0.0 mm 0.00 in0.0 mm
04:05 PM 63.7°F17.6°C 44.8°F7.1°C 50% 8.5 mph S13.7 kmh S 14.5 mph23.3 kmh 30.44 in1030.8 mb 0.00 in0.0 mm 0.00 in0.0 mm 0.00 in0.0 mm
04:10 PM 63.6°F17.6°C 44.1°F6.7°C 49% 8.5 mph S13.7 kmh S 21.9 mph35.2 kmh 30.44 in1030.8 mb 0.00 in0.0 mm 0.00 in0.0 mm 0.00 in0.0 mm
04:15 PM 63.5°F17.5°C 44.0°F6.7°C 49% 9.2 mph S14.8 kmh S 24.8 mph39.9 kmh 30.44 in1030.8 mb 0.00 in0.0 mm 0.00 in0.0 mm 0.00 in0.0 mm
04:20 PM 63.6°F17.6°C 44.1°F6.7°C 49% 11.4 mph SSW18.3 kmh SSW 17.0 mph27.4 kmh 30.44 in1030.8 mb 0.00 in0.0 mm 0.00 in0.0 mm 0.00 in0.0 mm
04:25 PM 63.8°F17.7°C 44.2°F6.8°C 49% 11.6 mph SSW18.7 kmh SSW 26.8 mph43.1 kmh 30.44 in1030.8 mb 0.00 in0.0 mm 0.00 in0.0 mm 0.00 in0.0 mm
04:30 PM 63.7°F17.6°C 44.4°F6.9°C 49% 12.3 mph SW19.8 kmh SW 14.8 mph23.8 kmh 30.44 in1030.8 mb 0.00 in0.0 mm 0.00 in0.0 mm 0.00 in0.0 mm
04:35 PM 63.7°F17.6°C 44.7°F7.1°C 50% 11.9 mph SW19.2 kmh SW 13.6 mph21.9 kmh 30.44 in1030.8 mb 0.00 in0.0 mm 0.00 in0.0 mm 0.00 in0.0 mm
04:40 PM 63.7°F17.6°C 44.7°F7.1°C 50% 10.7 mph SW17.2 kmh SW 12.3 mph19.8 kmh 30.44 in1030.8 mb 0.00 in0.0 mm 0.00 in0.0 mm 0.00 in0.0 mm
04:45 PM 63.7°F17.6°C 44.8°F7.1°C 50% 10.2 mph SW16.4 kmh SW 12.3 mph19.8 kmh 30.44 in1030.8 mb 0.00 in0.0 mm 0.00 in0.0 mm 0.00 in0.0 mm
04:50 PM 63.8°F17.7°C 44.9°F7.2°C 50% 8.5 mph SW13.7 kmh SW 16.3 mph26.2 kmh 30.44 in1030.8 mb 0.00 in0.0 mm 0.00 in0.0 mm 0.00 in0.0 mm
04:55 PM 63.9°F17.7°C 44.9°F7.2°C 50% 8.5 mph SW13.7 kmh SW 13.6 mph21.9 kmh 30.44 in1030.8 mb 0.00 in0.0 mm 0.00 in0.0 mm 0.00 in0.0 mm
05:00 PM 63.7°F17.6°C 44.7°F7.1°C 50% 8.5 mph SSW13.7 kmh SSW 12.3 mph19.8 kmh 30.44 in1030.8 mb 0.00 in0.0 mm 0.00 in0.0 mm 0.00 in0.0 mm
05:05 PM 63.4°F17.4°C 45.7°F7.6°C 53% 8.1 mph SSW13.0 kmh SSW 10.1 mph16.3 kmh 30.44 in1030.8 mb 0.00 in0.0 mm 0.00 in0.0 mm 0.00 in0.0 mm
05:10 PM 63.0°F17.2°C 46.5°F8.1°C 55% 6.9 mph S11.1 kmh S 10.1 mph16.3 kmh 30.45 in1031.2 mb 0.00 in0.0 mm 0.00 in0.0 mm 0.00 in0.0 mm
05:15 PM 62.5°F16.9°C 46.8°F8.2°C 56% 6.8 mph S10.9 kmh S 8.7 mph14.0 kmh 30.45 in1031.2 mb 0.00 in0.0 mm 0.00 in0.0 mm 0.00 in0.0 mm
05:20 PM 62.1°F16.7°C 46.7°F8.2°C 57% 6.3 mph S10.1 kmh S 8.7 mph14.0 kmh 30.45 in1031.2 mb 0.00 in0.0 mm 0.00 in0.0 mm 0.00 in0.0 mm
05:25 PM 61.6°F16.4°C 46.6°F8.1°C 58% 6.0 mph S9.7 kmh S 8.5 mph13.7 kmh 30.45 in1031.2 mb 0.00 in0.0 mm 0.00 in0.0 mm 0.00 in0.0 mm
05:30 PM 61.1°F16.2°C 46.6°F8.1°C 59% 5.1 mph S8.2 kmh S 7.4 mph11.9 kmh 30.45 in1031.2 mb 0.00 in0.0 mm 0.00 in0.0 mm 0.00 in0.0 mm
05:35 PM 60.7°F15.9°C 46.7°F8.2°C 60% 5.1 mph S8.2 kmh S 9.2 mph14.8 kmh 30.45 in1031.2 mb 0.00 in0.0 mm 0.00 in0.0 mm 0.00 in0.0 mm
05:40 PM 60.4°F15.8°C 46.9°F8.3°C 61% 5.1 mph S8.2 kmh S 13.6 mph21.9 kmh 30.45 in1031.2 mb 0.00 in0.0 mm 0.00 in0.0 mm 0.00 in0.0 mm
05:45 PM 60.1°F15.6°C 47.2°F8.4°C 62% 5.2 mph S8.4 kmh S 13.0 mph20.9 kmh 30.45 in1031.2 mb 0.00 in0.0 mm 0.00 in0.0 mm 0.00 in0.0 mm
05:50 PM 59.7°F15.4°C 47.3°F8.5°C 64% 5.4 mph S8.7 kmh S 7.6 mph12.2 kmh 30.45 in1031.2 mb 0.00 in0.0 mm 0.00 in0.0 mm 0.00 in0.0 mm
05:55 PM 59.5°F15.3°C 47.7°F8.7°C 65% 5.2 mph S8.4 kmh S 8.5 mph13.7 kmh 30.45 in1031.2 mb 0.00 in0.0 mm 0.00 in0.0 mm 0.00 in0.0 mm
06:00 PM 59.2°F15.1°C 48.1°F8.9°C 66% 4.7 mph S7.6 kmh S 7.6 mph12.2 kmh 30.45 in1031.2 mb 0.00 in0.0 mm 0.00 in0.0 mm 0.00 in0.0 mm
06:05 PM 58.9°F14.9°C 48.2°F9.0°C 68% 4.9 mph S7.9 kmh S 8.5 mph13.7 kmh 30.45 in1031.2 mb 0.00 in0.0 mm 0.00 in0.0 mm 0.00 in0.0 mm
06:10 PM 58.7°F14.8°C 48.5°F9.2°C 69% 5.4 mph S8.7 kmh S 7.4 mph11.9 kmh 30.45 in1031.2 mb 0.00 in0.0 mm 0.00 in0.0 mm 0.00 in0.0 mm
06:15 PM 58.4°F14.7°C 48.6°F9.2°C 70% 5.4 mph S8.7 kmh S 7.6 mph12.2 kmh 30.45 in1031.2 mb 0.00 in0.0 mm 0.00 in0.0 mm 0.00 in0.0 mm
06:20 PM 58.2°F14.6°C 48.6°F9.2°C 70% 5.4 mph SSW8.7 kmh SSW 8.7 mph14.0 kmh 30.45 in1031.2 mb 0.00 in0.0 mm 0.00 in0.0 mm 0.00 in0.0 mm
06:25 PM 58.0°F14.4°C 48.6°F9.2°C 71% 5.3 mph S8.5 kmh S 8.5 mph13.7 kmh 30.45 in1031.2 mb 0.00 in0.0 mm 0.00 in0.0 mm 0.00 in0.0 mm
06:30 PM 57.7°F14.3°C 48.4°F9.1°C 71% 5.1 mph S8.2 kmh S 8.1 mph13.0 kmh 30.45 in1031.2 mb 0.00 in0.0 mm 0.00 in0.0 mm 0.00 in0.0 mm
06:35 PM 57.6°F14.2°C 48.6°F9.2°C 72% 5.3 mph S8.5 kmh S 8.1 mph13.0 kmh 30.45 in1031.2 mb 0.00 in0.0 mm 0.00 in0.0 mm 0.00 in0.0 mm
06:40 PM 57.5°F14.2°C 48.6°F9.2°C 72% 5.8 mph S9.3 kmh S 10.7 mph17.2 kmh 30.45 in1031.2 mb 0.00 in0.0 mm 0.00 in0.0 mm 0.00 in0.0 mm
06:45 PM 57.4°F14.1°C 48.1°F8.9°C 71% 6.0 mph SSW9.7 kmh SSW 8.5 mph13.7 kmh 30.45 in1031.2 mb 0.00 in0.0 mm 0.00 in0.0 mm 0.00 in0.0 mm
06:50 PM 57.4°F14.1°C 48.1°F8.9°C 71% 6.5 mph SSW10.5 kmh SSW 7.4 mph11.9 kmh 30.45 in1031.2 mb 0.00 in0.0 mm 0.00 in0.0 mm 0.00 in0.0 mm
06:55 PM 57.4°F14.1°C 48.1°F8.9°C 71% 6.1 mph SSW9.8 kmh SSW 8.1 mph13.0 kmh 30.45 in1031.2 mb 0.00 in0.0 mm 0.00 in0.0 mm 0.00 in0.0 mm
07:00 PM 57.3°F14.1°C 48.0°F8.9°C 71% 5.1 mph SSW8.2 kmh SSW 8.1 mph13.0 kmh 30.45 in1031.2 mb 0.00 in0.0 mm 0.00 in0.0 mm 0.00 in0.0 mm
07:05 PM 57.1°F13.9°C 47.8°F8.8°C 71% 5.3 mph SSW8.5 kmh SSW 7.6 mph12.2 kmh 30.45 in1031.2 mb 0.00 in0.0 mm 0.00 in0.0 mm 0.00 in0.0 mm
07:10 PM 57.0°F13.9°C 47.7°F8.7°C 71% 5.8 mph SSW9.3 kmh SSW 8.1 mph13.0 kmh 30.45 in1031.2 mb 0.00 in0.0 mm 0.00 in0.0 mm 0.00 in0.0 mm
07:15 PM 56.9°F13.8°C 48.0°F8.9°C 72% 5.7 mph SW9.2 kmh SW 7.6 mph12.2 kmh 30.45 in1031.2 mb 0.00 in0.0 mm 0.00 in0.0 mm 0.00 in0.0 mm
07:20 PM 56.8°F13.8°C 47.9°F8.8°C 72% 5.4 mph SW8.7 kmh SW 8.5 mph13.7 kmh 30.45 in1031.2 mb 0.00 in0.0 mm 0.00 in0.0 mm 0.00 in0.0 mm
07:25 PM 56.7°F13.7°C 47.8°F8.8°C 72% 5.6 mph SW9.0 kmh SW 8.7 mph14.0 kmh 30.45 in1031.2 mb 0.00 in0.0 mm 0.00 in0.0 mm 0.00 in0.0 mm
07:30 PM 56.6°F13.7°C 47.7°F8.7°C 72% 6.3 mph SW10.1 kmh SW 9.2 mph14.8 kmh 30.45 in1031.2 mb 0.00 in0.0 mm 0.00 in0.0 mm 0.00 in0.0 mm
07:35 PM 56.5°F13.6°C 47.6°F8.7°C 72% 6.3 mph SW10.1 kmh SW 8.5 mph13.7 kmh 30.45 in1031.2 mb 0.00 in0.0 mm 0.00 in0.0 mm 0.00 in0.0 mm
07:40 PM 56.3°F13.5°C 47.7°F8.7°C 73% 6.3 mph SW10.1 kmh SW 8.5 mph13.7 kmh 30.46 in1031.5 mb 0.00 in0.0 mm 0.00 in0.0 mm 0.00 in0.0 mm
07:45 PM 56.2°F13.4°C 47.7°F8.7°C 73% 6.0 mph SW9.7 kmh SW 6.9 mph11.1 kmh 30.46 in1031.5 mb 0.00 in0.0 mm 0.00 in0.0 mm 0.00 in0.0 mm
07:50 PM 56.1°F13.4°C 47.6°F8.7°C 73% 5.4 mph SW8.7 kmh SW 6.3 mph10.1 kmh 30.46 in1031.5 mb 0.00 in0.0 mm 0.00 in0.0 mm 0.00 in0.0 mm
07:55 PM 56.1°F13.4°C 47.6°F8.7°C 73% 5.4 mph SW8.7 kmh SW 9.6 mph15.4 kmh 30.46 in1031.5 mb 0.00 in0.0 mm 0.00 in0.0 mm 0.00 in0.0 mm
08:00 PM 56.1°F13.4°C 47.6°F8.7°C 73% 5.4 mph WSW8.7 kmh WSW 8.7 mph14.0 kmh 30.46 in1031.5 mb 0.00 in0.0 mm 0.00 in0.0 mm 0.00 in0.0 mm
08:05 PM 56.0°F13.3°C 47.5°F8.6°C 73% 5.7 mph WSW9.2 kmh WSW 9.6 mph15.4 kmh 30.46 in1031.5 mb 0.00 in0.0 mm 0.00 in0.0 mm 0.00 in0.0 mm
08:10 PM 55.9°F13.3°C 47.3°F8.5°C 73% 6.5 mph WSW10.5 kmh WSW 8.7 mph14.0 kmh 30.46 in1031.5 mb 0.00 in0.0 mm 0.00 in0.0 mm 0.00 in0.0 mm
08:15 PM 55.9°F13.3°C 47.4°F8.6°C 73% 6.4 mph WSW10.3 kmh WSW 6.9 mph11.1 kmh 30.46 in1031.5 mb 0.00 in0.0 mm 0.00 in0.0 mm 0.00 in0.0 mm
08:20 PM 55.9°F13.3°C 47.4°F8.6°C 73% 6.3 mph WSW10.1 kmh WSW 8.1 mph13.0 kmh 30.46 in1031.5 mb 0.00 in0.0 mm 0.00 in0.0 mm 0.00 in0.0 mm
08:25 PM 55.9°F13.3°C 47.4°F8.6°C 73% 6.0 mph WSW9.7 kmh WSW 6.3 mph10.1 kmh 30.46 in1031.5 mb 0.00 in0.0 mm 0.00 in0.0 mm 0.00 in0.0 mm
08:30 PM 55.8°F13.2°C 47.2°F8.4°C 73% 5.1 mph WSW8.2 kmh WSW 5.1 mph8.2 kmh 30.46 in1031.5 mb 0.00 in0.0 mm 0.00 in0.0 mm 0.00 in0.0 mm
08:35 PM 55.7°F13.2°C 47.2°F8.4°C 73% 4.6 mph WSW7.4 kmh WSW 6.3 mph10.1 kmh 30.46 in1031.5 mb 0.00 in0.0 mm 0.00 in0.0 mm 0.00 in0.0 mm
08:40 PM 55.6°F13.1°C 47.1°F8.4°C 73% 3.1 mph SW5.0 kmh SW 5.8 mph9.3 kmh 30.46 in1031.5 mb 0.00 in0.0 mm 0.00 in0.0 mm 0.00 in0.0 mm
08:45 PM 55.6°F13.1°C 47.1°F8.4°C 73% 3.5 mph SW5.6 kmh SW 5.8 mph9.3 kmh 30.46 in1031.5 mb 0.00 in0.0 mm 0.00 in0.0 mm 0.00 in0.0 mm
08:50 PM 55.5°F13.1°C 47.0°F8.3°C 73% 4.7 mph SW7.6 kmh SW 6.3 mph10.1 kmh 30.46 in1031.5 mb 0.00 in0.0 mm 0.00 in0.0 mm 0.00 in0.0 mm
08:55 PM 55.3°F12.9°C 46.8°F8.2°C 73% 4.7 mph SW7.6 kmh SW 6.3 mph10.1 kmh 30.46 in1031.5 mb 0.00 in0.0 mm 0.00 in0.0 mm 0.00 in0.0 mm
09:00 PM 55.2°F12.9°C 46.7°F8.2°C 73% 4.7 mph SW7.6 kmh SW 7.4 mph11.9 kmh 30.46 in1031.5 mb 0.00 in0.0 mm 0.00 in0.0 mm 0.00 in0.0 mm
09:05 PM 55.0°F12.8°C 46.5°F8.1°C 73% 4.8 mph SW7.7 kmh SW 8.5 mph13.7 kmh 30.46 in1031.5 mb 0.00 in0.0 mm 0.00 in0.0 mm 0.00 in0.0 mm
09:10 PM 54.7°F12.6°C 46.5°F8.1°C 74% 5.1 mph WSW8.2 kmh WSW 8.5 mph13.7 kmh 30.46 in1031.5 mb 0.00 in0.0 mm 0.00 in0.0 mm 0.00 in0.0 mm
09:15 PM 54.5°F12.5°C 46.3°F7.9°C 74% 5.4 mph WSW8.7 kmh WSW 11.4 mph18.3 kmh 30.46 in1031.5 mb 0.00 in0.0 mm 0.00 in0.0 mm 0.00 in0.0 mm
09:20 PM 54.2°F12.3°C 45.7°F7.6°C 73% 6.3 mph WSW10.1 kmh WSW 12.3 mph19.8 kmh 30.46 in1031.5 mb 0.00 in0.0 mm 0.00 in0.0 mm 0.00 in0.0 mm
09:25 PM 54.1°F12.3°C 45.1°F7.3°C 72% 6.6 mph WSW10.6 kmh WSW 10.3 mph16.6 kmh 30.46 in1031.5 mb 0.00 in0.0 mm 0.00 in0.0 mm 0.00 in0.0 mm
09:30 PM 54.0°F12.2°C 44.8°F7.1°C 71% 7.6 mph WSW12.2 kmh WSW 11.2 mph18.0 kmh 30.46 in1031.5 mb 0.00 in0.0 mm 0.00 in0.0 mm 0.00 in0.0 mm
09:35 PM 53.9°F12.2°C 44.5°F6.9°C 71% 7.6 mph WSW12.2 kmh WSW 10.3 mph16.6 kmh 30.46 in1031.5 mb 0.00 in0.0 mm 0.00 in0.0 mm 0.00 in0.0 mm
09:40 PM 53.8°F12.1°C 44.2°F6.8°C 70% 7.6 mph WSW12.2 kmh WSW 10.3 mph16.6 kmh 30.46 in1031.5 mb 0.00 in0.0 mm 0.00 in0.0 mm 0.00 in0.0 mm
09:45 PM 53.9°F12.2°C 44.2°F6.8°C 69% 7.3 mph WSW11.7 kmh WSW 9.6 mph15.4 kmh 30.46 in1031.5 mb 0.00 in0.0 mm 0.00 in0.0 mm 0.00 in0.0 mm
09:50 PM 54.2°F12.3°C 44.0°F6.7°C 69% 6.5 mph WSW10.5 kmh WSW 7.6 mph12.2 kmh 30.46 in1031.5 mb 0.00 in0.0 mm 0.00 in0.0 mm 0.00 in0.0 mm
09:55 PM 54.4°F12.4°C 43.9°F6.6°C 68% 6.5 mph WSW10.5 kmh WSW 10.3 mph16.6 kmh 30.46 in1031.5 mb 0.00 in0.0 mm 0.00 in0.0 mm 0.00 in0.0 mm
10:00 PM 54.7°F12.6°C 43.9°F6.6°C 67% 6.5 mph SW10.5 kmh SW 8.5 mph13.7 kmh 30.46 in1031.5 mb 0.00 in0.0 mm 0.00 in0.0 mm 0.00 in0.0 mm
10:05 PM 54.7°F12.6°C 43.6°F6.4°C 66% 6.5 mph SW10.5 kmh SW 8.7 mph14.0 kmh 30.46 in1031.5 mb 0.00 in0.0 mm 0.00 in0.0 mm 0.00 in0.0 mm
10:10 PM 54.7°F12.6°C 43.6°F6.4°C 66% 6.5 mph WSW10.5 kmh WSW 11.4 mph18.3 kmh 30.45 in1031.2 mb 0.00 in0.0 mm 0.00 in0.0 mm 0.00 in0.0 mm
10:15 PM 54.8°F12.7°C 43.7°F6.5°C 66% 7.0 mph WSW11.3 kmh WSW 10.3 mph16.6 kmh 30.45 in1031.2 mb 0.00 in0.0 mm 0.00 in0.0 mm 0.00 in0.0 mm
10:20 PM 54.9°F12.7°C 43.7°F6.5°C 66% 8.5 mph WSW13.7 kmh WSW 13.6 mph21.9 kmh 30.45 in1031.2 mb 0.00 in0.0 mm 0.00 in0.0 mm 0.00 in0.0 mm
10:25 PM 54.9°F12.7°C 43.8°F6.6°C 66% 8.8 mph WSW14.2 kmh WSW 13.4 mph21.6 kmh 30.45 in1031.2 mb 0.00 in0.0 mm 0.00 in0.0 mm 0.00 in0.0 mm
10:30 PM 55.0°F12.8°C 43.8°F6.6°C 66% 9.6 mph WSW15.4 kmh WSW 9.6 mph15.4 kmh 30.45 in1031.2 mb 0.00 in0.0 mm 0.00 in0.0 mm 0.00 in0.0 mm
10:35 PM 55.0°F12.8°C 43.5°F6.4°C 65% 8.8 mph WSW14.2 kmh WSW 9.6 mph15.4 kmh 30.45 in1031.2 mb 0.00 in0.0 mm 0.00 in0.0 mm 0.00 in0.0 mm
10:40 PM 54.9°F12.7°C 43.4°F6.3°C 65% 6.5 mph WSW10.5 kmh WSW 7.6 mph12.2 kmh 30.45 in1031.2 mb 0.00 in0.0 mm 0.00 in0.0 mm 0.00 in0.0 mm
10:45 PM 54.7°F12.6°C 43.6°F6.4°C 66% 6.2 mph WSW10.0 kmh WSW 7.4 mph11.9 kmh 30.45 in1031.2 mb 0.00 in0.0 mm 0.00 in0.0 mm 0.00 in0.0 mm
10:50 PM 54.6°F12.6°C 43.5°F6.4°C 66% 5.4 mph WSW8.7 kmh WSW 6.9 mph11.1 kmh 30.45 in1031.2 mb 0.00 in0.0 mm 0.00 in0.0 mm 0.00 in0.0 mm
10:55 PM 54.4°F12.4°C 43.3°F6.3°C 66% 5.2 mph WSW8.4 kmh WSW 9.6 mph15.4 kmh 30.45 in1031.2 mb 0.00 in0.0 mm 0.00 in0.0 mm 0.00 in0.0 mm
11:00 PM 54.3°F12.4°C 43.2°F6.2°C 66% 4.7 mph SW7.6 kmh SW 11.2 mph18.0 kmh 30.45 in1031.2 mb 0.00 in0.0 mm 0.00 in0.0 mm 0.00 in0.0 mm
11:05 PM 54.3°F12.4°C 43.2°F6.2°C 66% 5.4 mph SW8.7 kmh SW 10.1 mph16.3 kmh 30.45 in1031.2 mb 0.00 in0.0 mm 0.00 in0.0 mm 0.00 in0.0 mm
11:10 PM 54.3°F12.4°C 43.3°F6.3°C 66% 7.4 mph WSW11.9 kmh WSW 10.1 mph16.3 kmh 30.45 in1031.2 mb 0.00 in0.0 mm 0.00 in0.0 mm 0.00 in0.0 mm
11:15 PM 54.3°F12.4°C 43.6°F6.4°C 67% 7.4 mph WSW11.9 kmh WSW 9.2 mph14.8 kmh 30.45 in1031.2 mb 0.00 in0.0 mm 0.00 in0.0 mm 0.00 in0.0 mm
11:20 PM 54.3°F12.4°C 43.4°F6.3°C 66% 7.4 mph SW11.9 kmh SW 9.2 mph14.8 kmh 30.45 in1031.2 mb 0.00 in0.0 mm 0.00 in0.0 mm 0.00 in0.0 mm
11:25 PM 54.4°F12.4°C 43.3°F6.3°C 66% 7.4 mph SW11.9 kmh SW 13.6 mph21.9 kmh 30.45 in1031.2 mb 0.00 in0.0 mm 0.00 in0.0 mm 0.00 in0.0 mm
11:30 PM 54.7°F12.6°C 43.3°F6.3°C 65% 7.4 mph SW11.9 kmh SW 11.9 mph19.2 kmh 30.45 in1031.2 mb 0.00 in0.0 mm 0.00 in0.0 mm 0.00 in0.0 mm
11:35 PM 54.9°F12.7°C 43.2°F6.2°C 65% 7.6 mph SW12.2 kmh SW 12.3 mph19.8 kmh 30.45 in1031.2 mb 0.00 in0.0 mm 0.00 in0.0 mm 0.00 in0.0 mm
11:40 PM 54.9°F12.7°C 43.3°F6.3°C 65% 8.1 mph SW13.0 kmh SW 9.6 mph15.4 kmh 30.45 in1031.2 mb 0.00 in0.0 mm 0.00 in0.0 mm 0.00 in0.0 mm
11:45 PM 54.9°F12.7°C 43.3°F6.3°C 65% 7.8 mph SW12.6 kmh SW 8.1 mph13.0 kmh 30.45 in1031.2 mb 0.00 in0.0 mm 0.00 in0.0 mm 0.00 in0.0 mm
11:50 PM 54.7°F12.6°C 43.2°F6.2°C 65% 6.9 mph SW11.1 kmh SW 11.2 mph18.0 kmh 30.45 in1031.2 mb 0.00 in0.0 mm 0.00 in0.0 mm 0.00 in0.0 mm
11:55 PM 54.7°F12.6°C 43.1°F6.2°C 65% 6.8 mph SW10.9 kmh SW 11.2 mph18.0 kmh 30.44 in1030.8 mb 0.00 in0.0 mm 0.00 in0.0 mm 0.00 in0.0 mm